Juneau, AK

1:14 AM AKDT on April 18, 2015 (GMT -0800)
AKDOT | | Change Station
CLOSE
Current Station
Personal Weather Station
Location: Juneau, AK
Elevation: 75 ft
Nearby Weather Stations

Elev 75 ft 58.33 °N, 134.50 °W | Updated 45 minutes ago

Mostly Cloudy
Mostly Cloudy
38 °F
Feels Like 38 °F
N
3
Wind Variable Wind from SE
Gusts 7.0 mph

Today
High -- | Low -- °F
--% Chance of Precip.
Yesterday
High -- | Low -- °F
Precip. -- in
5:38 AM 8:18 PM
Waning Crescent, 0% visible
Pressure 30.41 in
Visibility 10.0 miles
Clouds Few 1100 ft
Few 3000 ft
Scattered Clouds 6500 ft
Mostly Cloudy 16000 ft
Windchill 38 °F
Dew Point 34 °F
Humidity 85%
Rainfall in
Snow Depth Not available.
UV 0 out of 12
Pollen Not available.
Air Quality Not available.
Flu Activity Sporadic
METAR PAJN 180853Z 07007KT 10SM FEW011 FEW030 SCT065 BKN160 04/02 A3041 RMK AO2 SLP296 T00390022 400830028 52006

More Conditions Fewer Conditions

Pressure 30.41 in
Visibility 10.0 miles
Clouds Few 1100 ft
Few 3000 ft
Scattered Clouds 6500 ft
Mostly Cloudy 16000 ft
Windchill 38 °F
Dew Point 34 °F
Humidity 85%
Rainfall in
Snow Depth Not available.
UV 0 out of 12
Pollen Not available.
Air Quality Not available.
Flu Activity Sporadic
METAR PAJN 180853Z 07007KT 10SM FEW011 FEW030 SCT065 BKN160 04/02 A3041 RMK AO2 SLP296 T00390022 400830028 52006

More Conditions Fewer Conditions

10-Day Weather Forecast

Almanac

Astronomy

Apr. 18, 2015 Rise Set
Actual Time
Civil Twilight
Nautical Twilight
Astronomical Twilight
Moon
Length of Visible Light
Length of Day
Tomorrow will be .
, % of the Moon is Illuminated

Today's Extremes

State Highs State Lows

Community

WunderPhotos

Upload Photos

1,814,350 photos uploaded!

WunderBlogs® & News

Nearby

Air Quality

  Air Quality AQ Index Pollutant
Not available.

Snow Depth

Station Depth Elevation

Earthquake Activity

City Distance Mag. Time & Date
Minimum magnitude displayed is 2.5.

Coastal Water Temperatures

Place Temperature

Stations

Nearby Weather Stations

Station Location Temp. Windchill Dew Point Humidity Wind Precip. Elev Updated Type